createdAt,value
2023-01-23T00:00:35.154Z,3.59
2023-01-23T00:05:36.676Z,3.63
2023-01-23T00:10:38.756Z,3.55
2023-01-23T00:15:40.365Z,3.62
2023-01-23T00:20:42.577Z,3.58
2023-01-23T00:25:44.111Z,3.55
2023-01-23T00:30:45.670Z,3.53
2023-01-23T00:35:47.337Z,3.55
2023-01-23T00:40:48.887Z,3.62
2023-01-23T00:45:50.781Z,3.63
2023-01-23T00:50:53.079Z,3.59
2023-01-23T00:55:57.910Z,3.59
2023-01-23T01:00:59.513Z,3.59
2023-01-23T01:06:01.216Z,3.59
2023-01-23T01:11:03.889Z,3.58
2023-01-23T01:16:06.645Z,3.61
2023-01-23T01:21:12.311Z,3.66
2023-01-23T01:26:14.005Z,3.56
2023-01-23T01:31:17.820Z,3.60
2023-01-23T01:36:22.285Z,3.56
2023-01-23T01:41:23.888Z,3.60
2023-01-23T01:46:27.908Z,3.62
2023-01-23T01:51:53.360Z,3.62
2023-01-23T01:57:13.836Z,3.66
2023-01-23T02:02:20.939Z,3.59
2023-01-23T02:07:33.606Z,3.63
2023-01-23T02:12:35.785Z,3.57
2023-01-23T02:17:37.928Z,3.64
2023-01-23T02:22:48.482Z,3.59
2023-01-23T02:27:50.359Z,3.56
2023-01-23T02:32:52.013Z,3.64
2023-01-23T02:38:02.023Z,3.62
2023-01-23T02:43:11.252Z,3.60
2023-01-23T02:48:17.716Z,3.59
2023-01-23T02:53:19.392Z,3.54
2023-01-23T02:58:21.160Z,3.52
2023-01-23T03:03:24.229Z,3.44
2023-01-23T03:08:25.792Z,3.46
2023-01-23T03:13:27.406Z,3.53
2023-01-23T03:18:29.238Z,3.39
2023-01-23T03:23:31.117Z,3.36
2023-01-23T03:28:32.907Z,3.41
2023-01-23T03:33:34.548Z,3.41
2023-01-23T03:38:36.696Z,3.40
2023-01-23T03:43:41.227Z,3.36
2023-01-23T03:48:43.050Z,3.38
2023-01-23T03:53:44.739Z,3.40
2023-01-23T03:58:47.086Z,3.32
2023-01-23T04:03:49.811Z,3.33
2023-01-23T04:08:51.550Z,3.23
2023-01-23T04:13:54.578Z,3.28
2023-01-23T04:18:58.213Z,3.09
2023-01-23T04:24:01.157Z,3.07
2023-01-23T04:29:03.036Z,3.06
2023-01-23T04:34:04.804Z,3.02
2023-01-23T04:39:06.809Z,2.87
2023-01-23T04:44:10.202Z,2.72
2023-01-23T04:49:12.137Z,2.35
2023-01-23T04:54:14.191Z,1.94
2023-01-23T04:59:17.529Z,1.82
2023-01-23T05:04:19.955Z,1.71
2023-01-23T05:09:22.868Z,1.79
2023-01-23T05:14:27.452Z,1.89
2023-01-23T05:19:30.161Z,2.12
2023-01-23T05:24:35.396Z,2.16
2023-01-23T05:29:39.781Z,2.23
2023-01-23T05:34:47.838Z,2.16
2023-01-23T05:39:56.857Z,2.03
2023-01-23T05:45:00.254Z,1.95
2023-01-23T05:50:07.339Z,2.08
2023-01-23T05:55:11.655Z,1.94
2023-01-23T06:00:15.755Z,1.93
2023-01-23T06:05:22.302Z,2.08
2023-01-23T06:10:37.779Z,2.23
2023-01-23T06:15:39.391Z,2.38
2023-01-23T06:20:45.763Z,2.57
2023-01-23T06:25:47.749Z,2.58
2023-01-23T06:30:49.626Z,2.63
2023-01-23T06:36:05.119Z,2.66
2023-01-23T06:41:08.872Z,2.69
2023-01-23T06:46:12.908Z,2.85
2023-01-23T06:51:14.711Z,2.82
2023-01-23T06:56:19.279Z,2.83
2023-01-23T07:01:22.344Z,2.80
2023-01-23T07:06:51.757Z,2.92
2023-01-23T07:11:54.897Z,2.99
2023-01-23T07:16:56.566Z,2.94
2023-01-23T07:21:59.601Z,3.02
2023-01-23T07:27:01.556Z,3.10
2023-01-23T07:32:03.181Z,3.20
2023-01-23T07:37:05.104Z,3.22
2023-01-23T07:42:06.720Z,3.24
2023-01-23T07:47:08.276Z,3.25
2023-01-23T07:52:09.913Z,3.32
2023-01-23T07:57:11.451Z,3.36
2023-01-23T08:02:13.235Z,3.59
2023-01-23T08:07:14.802Z,3.62
2023-01-23T08:12:16.427Z,3.60
2023-01-23T08:17:18.157Z,3.82
2023-01-23T08:22:19.723Z,3.89
2023-01-23T08:27:21.747Z,3.80
2023-01-23T08:32:23.369Z,3.93
2023-01-23T08:37:25.186Z,3.95
2023-01-23T08:42:26.784Z,3.98
2023-01-23T08:47:28.378Z,4.01
2023-01-23T08:52:30.182Z,3.77
2023-01-23T08:57:31.834Z,3.90
2023-01-23T09:02:33.571Z,3.99
2023-01-23T09:07:35.237Z,3.98
2023-01-23T09:12:36.803Z,3.98
2023-01-23T09:17:38.430Z,3.99
2023-01-23T09:22:40.010Z,4.03
2023-01-23T09:27:41.679Z,4.11
2023-01-23T09:32:43.369Z,4.20
2023-01-23T09:37:44.885Z,4.27
2023-01-23T09:42:46.780Z,4.52
2023-01-23T09:47:53.284Z,4.38
2023-01-23T09:53:17.236Z,4.63
2023-01-23T09:58:24.737Z,4.52
2023-01-23T10:03:31.688Z,4.68
2023-01-23T10:08:48.340Z,4.83
2023-01-23T10:14:24.213Z,4.86
2023-01-23T10:20:02.797Z,4.87
2023-01-23T10:25:25.391Z,5.05
2023-01-23T10:30:34.660Z,5.00
2023-01-23T10:35:44.614Z,4.95
2023-01-23T10:40:48.127Z,4.85
2023-01-23T10:45:50.304Z,4.96
2023-01-23T10:50:51.985Z,5.12
2023-01-23T10:55:57.659Z,5.21
2023-01-23T11:01:00.127Z,5.59
2023-01-23T11:06:16.533Z,5.19
2023-01-23T11:11:22.238Z,5.41
2023-01-23T11:16:24.013Z,5.65
2023-01-23T11:21:32.555Z,5.61
2023-01-23T11:26:36.576Z,5.38
2023-01-23T11:31:39.951Z,5.32
2023-01-23T11:36:45.452Z,5.66
2023-01-23T11:41:47.543Z,5.39
2023-01-23T11:47:13.646Z,5.66
2023-01-23T11:52:41.593Z,5.45
2023-01-23T11:58:20.989Z,5.36
2023-01-23T12:03:47.900Z,5.53
2023-01-23T12:09:11.250Z,5.76
2023-01-23T12:14:30.885Z,5.71
2023-01-23T12:19:32.468Z,5.45
2023-01-23T12:25:14.645Z,5.48
2023-01-23T12:30:42.930Z,5.47
2023-01-23T12:35:56.522Z,5.29
2023-01-23T12:41:17.065Z,5.44
2023-01-23T12:46:25.841Z,5.68
2023-01-23T12:51:37.227Z,5.58
2023-01-23T12:56:39.730Z,5.35
2023-01-23T13:01:53.257Z,5.56
2023-01-23T13:07:42.384Z,5.44
2023-01-23T13:12:44.477Z,5.57
2023-01-23T13:17:58.044Z,5.69
2023-01-23T13:23:18.163Z,5.71
2023-01-23T13:28:44.004Z,5.72
2023-01-23T13:33:47.192Z,5.72
2023-01-23T13:39:03.248Z,5.61
2023-01-23T13:44:24.850Z,5.75
2023-01-23T14:21:40.813Z,5.62
2023-01-23T14:26:49.707Z,5.59
2023-01-23T14:31:51.886Z,5.73
2023-01-23T14:37:12.195Z,5.61
2023-01-23T14:42:31.772Z,5.86
2023-01-23T14:47:39.417Z,5.55
2023-01-23T14:52:42.570Z,5.60
2023-01-23T14:57:44.249Z,5.62
2023-01-23T15:02:47.809Z,5.69
2023-01-23T15:07:55.527Z,5.68
2023-01-23T15:13:00.817Z,5.74
2023-01-23T15:18:05.847Z,5.73
2023-01-23T15:23:31.801Z,5.62
2023-01-23T15:28:54.133Z,5.51
2023-01-23T15:33:57.967Z,5.54
2023-01-23T15:38:59.837Z,5.47
2023-01-23T15:44:01.363Z,5.61
2023-01-23T15:49:04.267Z,5.52
2023-01-23T15:54:16.686Z,5.41
2023-01-23T15:59:19.352Z,5.39
2023-01-23T16:04:20.998Z,5.50
2023-01-23T16:09:31.459Z,5.29
2023-01-23T16:14:33.038Z,5.21
2023-01-23T16:19:34.599Z,5.18
2023-01-23T16:24:39.422Z,5.06
2023-01-23T16:29:40.997Z,4.98
2023-01-23T16:34:42.696Z,5.05
2023-01-23T16:39:46.293Z,4.88
2023-01-23T16:44:47.977Z,4.96
2023-01-23T16:49:53.016Z,4.92
2023-01-23T16:54:55.519Z,5.00
2023-01-23T16:59:58.188Z,4.99
2023-01-23T17:04:59.800Z,4.90
2023-01-23T17:10:01.397Z,4.89
2023-01-23T17:15:03.910Z,4.86
2023-01-23T17:20:06.098Z,4.82
2023-01-23T17:25:16.062Z,4.96
2023-01-23T17:30:22.939Z,5.01
2023-01-23T17:35:34.636Z,4.95
2023-01-23T17:40:36.185Z,4.91
2023-01-23T17:45:38.269Z,4.99
2023-01-23T17:50:45.051Z,4.96
2023-01-23T17:55:46.579Z,4.93
2023-01-23T18:00:51.239Z,4.93
2023-01-23T18:05:53.086Z,4.92
2023-01-23T18:10:55.027Z,4.89
2023-01-23T18:16:02.544Z,4.95
2023-01-23T18:21:12.237Z,4.87
2023-01-23T18:26:28.662Z,4.88
2023-01-23T18:31:51.487Z,4.89
2023-01-23T18:37:06.537Z,4.89
2023-01-23T18:42:28.876Z,5.01
2023-01-23T18:47:31.092Z,4.94
2023-01-23T18:52:54.592Z,4.93
2023-01-23T18:58:29.277Z,4.72
2023-01-23T19:03:41.818Z,4.72
2023-01-23T19:08:43.590Z,4.79
2023-01-23T19:13:55.452Z,4.74
2023-01-23T19:19:20.536Z,4.77
2023-01-23T19:24:22.408Z,4.75
2023-01-23T19:29:24.251Z,4.84
2023-01-23T19:34:25.785Z,4.81
2023-01-23T19:39:27.347Z,4.86
2023-01-23T19:44:29.097Z,4.91
2023-01-23T19:49:30.860Z,4.87
2023-01-23T19:54:32.460Z,4.89
2023-01-23T19:59:34.016Z,4.81
2023-01-23T20:04:35.582Z,4.87
2023-01-23T20:09:37.205Z,4.89
2023-01-23T20:14:38.770Z,4.82
2023-01-23T20:19:40.334Z,4.94
2023-01-23T20:24:42.087Z,4.93
2023-01-23T20:29:43.664Z,4.95
2023-01-23T20:34:45.331Z,4.98
2023-01-23T20:39:46.917Z,4.89
2023-01-23T20:44:48.524Z,5.03
2023-01-23T20:49:50.443Z,4.91
2023-01-23T20:54:52.007Z,4.93
2023-01-23T20:59:53.633Z,4.69
2023-01-23T21:04:55.173Z,4.84
2023-01-23T21:09:56.677Z,4.89
2023-01-23T21:14:58.221Z,4.89
2023-01-23T21:19:59.786Z,4.81
2023-01-23T21:25:01.634Z,4.85
2023-01-23T21:30:03.344Z,4.83
2023-01-23T21:35:05.200Z,4.84
2023-01-23T21:40:07.798Z,4.69
2023-01-23T21:45:09.660Z,4.84
2023-01-23T21:50:11.609Z,4.78
2023-01-23T21:55:13.150Z,4.84
2023-01-23T22:00:15.113Z,4.83
2023-01-23T22:05:16.685Z,4.83
2023-01-23T22:10:18.387Z,4.73
2023-01-23T22:15:20.404Z,4.77
2023-01-23T22:20:22.203Z,4.66
2023-01-23T22:25:23.900Z,4.82
2023-01-23T22:30:25.499Z,4.80
2023-01-23T22:35:27.098Z,4.82
2023-01-23T22:40:28.724Z,4.81
2023-01-23T22:45:30.725Z,4.85
2023-01-23T22:50:32.376Z,4.78
2023-01-23T22:55:33.978Z,4.84
2023-01-23T23:00:35.543Z,4.92
2023-01-23T23:05:37.185Z,4.83
2023-01-23T23:10:38.854Z,4.94
2023-01-23T23:15:40.375Z,4.82
2023-01-23T23:20:42.016Z,4.80
2023-01-23T23:25:43.640Z,4.80
2023-01-23T23:30:45.166Z,4.89
2023-01-23T23:35:47.155Z,4.81
2023-01-23T23:41:02.881Z,4.87
2023-01-23T23:46:06.443Z,4.93
2023-01-23T23:51:10.721Z,4.89
2023-01-23T23:56:32.533Z,4.85
